createdAt,value
2017-07-08T00:00:56.472Z,7.70
2017-07-08T00:03:23.982Z,7.93
2017-07-08T00:05:51.458Z,7.90
2017-07-08T00:08:18.970Z,7.50
2017-07-08T00:10:46.449Z,7.90
2017-07-08T00:13:13.959Z,7.03
2017-07-08T00:15:41.435Z,8.10
2017-07-08T00:18:09.699Z,8.60
2017-07-08T00:20:37.179Z,8.10
2017-07-08T00:23:04.668Z,8.00
2017-07-08T00:25:32.164Z,7.43
2017-07-08T00:27:59.629Z,7.50
2017-07-08T00:30:27.117Z,7.70
2017-07-08T00:32:54.600Z,8.47
2017-07-08T00:35:22.118Z,8.20
2017-07-08T00:37:50.367Z,8.03
2017-07-08T00:40:17.858Z,7.80
2017-07-08T00:42:46.099Z,8.00
2017-07-08T00:45:13.595Z,8.07
2017-07-08T00:47:41.067Z,8.27
2017-07-08T00:50:08.544Z,7.70
2017-07-08T00:52:36.032Z,7.70
2017-07-08T00:55:03.514Z,7.20
2017-07-08T00:57:31.793Z,8.00
2017-07-08T01:00:00.042Z,7.97
2017-07-08T01:02:27.532Z,8.97
2017-07-08T01:04:55.783Z,8.37
2017-07-08T01:07:23.285Z,8.13
2017-07-08T01:09:50.767Z,8.20
2017-07-08T01:12:18.270Z,7.50
2017-07-08T01:14:46.541Z,7.73
2017-07-08T01:17:14.825Z,8.20
2017-07-08T01:19:43.882Z,8.33
2017-07-08T01:22:11.342Z,7.83
2017-07-08T01:24:38.849Z,7.67
2017-07-08T01:27:06.335Z,8.27
2017-07-08T01:29:33.832Z,8.67
2017-07-08T01:32:01.309Z,7.80
2017-07-08T01:34:29.581Z,9.07
2017-07-08T01:36:57.823Z,8.00
2017-07-08T01:39:25.324Z,7.73
2017-07-08T01:41:53.592Z,7.37
2017-07-08T01:44:21.847Z,8.10
2017-07-08T01:46:49.329Z,7.87
2017-07-08T01:49:17.595Z,8.40
2017-07-08T01:51:45.070Z,9.43
2017-07-08T01:54:12.563Z,8.00
2017-07-08T01:56:40.065Z,8.00
2017-07-08T01:59:07.536Z,8.20
2017-07-08T02:01:35.802Z,7.83
2017-07-08T02:04:04.068Z,8.00
2017-07-08T02:06:31.568Z,8.83
2017-07-08T02:08:59.041Z,7.77
2017-07-08T02:11:26.530Z,8.13
2017-07-08T02:13:54.012Z,8.10
2017-07-08T02:16:21.510Z,8.60
2017-07-08T02:18:49.000Z,8.10
2017-07-08T02:21:16.497Z,9.33
2017-07-08T02:23:43.979Z,9.57
2017-07-08T02:26:11.470Z,8.33
2017-07-08T02:28:38.957Z,8.43
2017-07-08T02:31:06.440Z,8.83
2017-07-08T02:33:33.931Z,8.13
2017-07-08T02:36:01.426Z,8.60
2017-07-08T02:38:28.918Z,8.67
2017-07-08T02:40:56.411Z,8.27
2017-07-08T02:43:23.921Z,7.83
2017-07-08T02:45:52.182Z,8.97
2017-07-08T02:48:20.448Z,8.77
2017-07-08T02:50:47.930Z,8.67
2017-07-08T02:53:16.199Z,8.93
2017-07-08T02:55:44.509Z,9.23
2017-07-08T02:58:11.960Z,9.40
2017-07-08T03:00:39.452Z,8.20
2017-07-08T03:03:06.961Z,8.40
2017-07-08T03:05:35.208Z,7.53
2017-07-08T03:08:02.691Z,7.70
2017-07-08T03:10:30.958Z,9.07
2017-07-08T03:12:59.211Z,7.60
2017-07-08T03:15:26.698Z,7.47
2017-07-08T03:17:54.939Z,7.40
2017-07-08T03:20:22.438Z,8.23
2017-07-08T03:22:49.932Z,8.00
2017-07-08T03:25:17.431Z,8.10
2017-07-08T03:27:44.911Z,8.47
2017-07-08T03:30:13.154Z,8.17
2017-07-08T03:32:40.635Z,7.90
2017-07-08T03:35:09.039Z,9.60
2017-07-08T03:37:36.547Z,8.30
2017-07-08T03:40:04.027Z,8.73
2017-07-08T03:42:32.301Z,7.20
2017-07-08T03:44:59.785Z,7.87
2017-07-08T03:47:27.327Z,8.50
2017-07-08T03:49:55.567Z,8.40
2017-07-08T03:52:23.066Z,8.13
2017-07-08T03:54:50.564Z,8.97
2017-07-08T03:57:18.060Z,9.20
2017-07-08T03:59:46.438Z,8.90
2017-07-08T04:02:13.939Z,8.07
2017-07-08T04:04:41.424Z,8.33
2017-07-08T04:07:08.928Z,9.20
2017-07-08T04:09:37.189Z,8.70
2017-07-08T04:12:04.654Z,7.43
2017-07-08T04:14:32.922Z,8.30
2017-07-08T04:17:00.390Z,8.87
2017-07-08T04:19:28.645Z,8.90
2017-07-08T04:21:56.118Z,8.33
2017-07-08T04:24:23.605Z,8.07
2017-07-08T04:26:51.084Z,7.83
2017-07-08T04:29:18.570Z,8.20
2017-07-08T04:31:46.044Z,7.87
2017-07-08T04:34:13.534Z,8.93
2017-07-08T04:36:41.071Z,9.83
2017-07-08T04:39:09.360Z,9.50
2017-07-08T04:41:37.601Z,9.00
2017-07-08T04:44:05.075Z,8.30
2017-07-08T04:46:32.568Z,9.07
2017-07-08T04:49:00.046Z,9.17
2017-07-08T04:51:27.536Z,9.00
2017-07-08T04:53:55.044Z,9.03
2017-07-08T04:56:22.547Z,8.87
2017-07-08T04:58:50.030Z,8.00
2017-07-08T05:01:18.293Z,8.43
2017-07-08T05:03:45.773Z,9.60
2017-07-08T05:06:14.054Z,9.10
2017-07-08T05:08:42.312Z,9.43
2017-07-08T05:11:09.794Z,9.60
2017-07-08T05:13:37.310Z,9.43
2017-07-08T05:16:04.802Z,10.20
2017-07-08T05:18:33.066Z,9.13
2017-07-08T05:21:01.366Z,8.40
2017-07-08T05:23:28.870Z,9.63
2017-07-08T05:25:56.345Z,9.67
2017-07-08T05:28:23.843Z,9.43
2017-07-08T05:30:51.321Z,9.17
2017-07-08T05:33:18.831Z,9.37
2017-07-08T05:35:47.068Z,9.30
2017-07-08T05:38:14.545Z,10.73
2017-07-08T05:40:42.043Z,10.80
2017-07-08T05:43:09.530Z,9.30
2017-07-08T05:45:37.041Z,8.47
2017-07-08T05:48:05.302Z,9.53
2017-07-08T05:50:32.807Z,9.70
2017-07-08T05:53:00.281Z,10.20
2017-07-08T05:55:27.776Z,10.17
2017-07-08T05:57:55.258Z,9.73
2017-07-08T06:00:22.774Z,9.83
2017-07-08T06:02:50.254Z,9.60
2017-07-08T06:05:17.919Z,10.87
2017-07-08T06:07:45.420Z,9.90
2017-07-08T06:10:12.918Z,10.10
2017-07-08T06:12:40.425Z,9.17
2017-07-08T06:15:07.918Z,9.20
2017-07-08T06:17:35.400Z,9.00
2017-07-08T06:20:02.881Z,9.50
2017-07-08T06:22:31.153Z,9.37
2017-07-08T06:25:05.489Z,9.37
2017-07-08T06:27:32.984Z,9.37
2017-07-08T06:30:00.464Z,9.40
2017-07-08T06:32:27.952Z,10.20
2017-07-08T06:34:56.195Z,8.20
2017-07-08T06:37:23.706Z,8.80
2017-07-08T06:39:51.200Z,9.47
2017-07-08T06:42:18.677Z,10.27
2017-07-08T06:44:46.195Z,9.70
2017-07-08T06:47:13.680Z,8.77
2017-07-08T06:49:41.189Z,8.90
2017-07-08T06:52:08.663Z,9.97
2017-07-08T06:54:36.169Z,9.10
2017-07-08T06:57:03.657Z,8.57
2017-07-08T06:59:31.165Z,9.20
2017-07-08T07:01:59.641Z,9.50
2017-07-08T07:04:27.134Z,10.87
2017-07-08T07:06:55.379Z,9.53
2017-07-08T07:09:22.867Z,9.17
2017-07-08T07:11:51.131Z,9.37
2017-07-08T07:14:18.610Z,8.93
2017-07-08T07:16:46.875Z,8.33
2017-07-08T07:19:15.122Z,8.97
2017-07-08T07:21:42.634Z,9.03
2017-07-08T07:24:11.061Z,8.73
2017-07-08T07:26:38.554Z,9.50
2017-07-08T07:29:06.812Z,9.10
2017-07-08T07:31:34.345Z,9.80
2017-07-08T07:34:01.821Z,9.23
2017-07-08T07:36:29.306Z,9.37
2017-07-08T07:38:57.553Z,8.23
2017-07-08T07:41:28.704Z,9.20
2017-07-08T07:43:56.541Z,9.63
2017-07-08T07:46:24.023Z,8.30
2017-07-08T07:48:51.515Z,8.73
2017-07-08T07:51:19.001Z,9.10
2017-07-08T07:53:46.502Z,7.57
2017-07-08T07:56:13.987Z,6.90
2017-07-08T07:58:42.239Z,6.43
2017-07-08T08:01:09.709Z,6.53
2017-07-08T08:03:37.978Z,6.90
2017-07-08T08:06:05.464Z,5.53
2017-07-08T08:08:32.967Z,6.47
2017-07-08T08:11:00.459Z,6.40
2017-07-08T08:13:28.702Z,6.50
2017-07-08T08:15:56.197Z,7.30
2017-07-08T08:18:24.441Z,8.90
2017-07-08T08:20:51.934Z,10.53
2017-07-08T08:23:20.391Z,6.97
2017-07-08T08:25:49.224Z,6.53
2017-07-08T08:28:16.733Z,6.60
2017-07-08T08:30:44.233Z,7.33
2017-07-08T08:33:11.723Z,7.50
2017-07-08T08:35:39.244Z,7.60
2017-07-08T08:38:07.491Z,7.23
2017-07-08T08:40:34.966Z,7.90
2017-07-08T08:43:03.216Z,8.07
2017-07-08T08:45:30.699Z,7.20
2017-07-08T08:47:58.967Z,8.17
2017-07-08T08:50:27.216Z,7.17
2017-07-08T08:52:54.724Z,8.10
2017-07-08T08:55:22.203Z,8.30
2017-07-08T08:57:49.723Z,8.40
2017-07-08T09:00:17.972Z,7.63
2017-07-08T09:02:45.462Z,8.10
2017-07-08T09:05:14.358Z,9.03
2017-07-08T09:07:42.632Z,6.13
2017-07-08T09:10:10.868Z,6.20
2017-07-08T09:12:38.375Z,5.87
2017-07-08T09:15:07.121Z,5.83
2017-07-08T09:17:34.717Z,5.87
2017-07-08T09:20:02.201Z,5.90
2017-07-08T09:22:29.690Z,5.80
2017-07-08T09:24:57.207Z,6.23
2017-07-08T09:27:24.681Z,5.43
2017-07-08T09:29:52.193Z,5.93
2017-07-08T09:32:19.662Z,5.27
2017-07-08T09:34:47.930Z,5.97
2017-07-08T09:37:16.172Z,6.47
2017-07-08T09:39:43.663Z,7.23
2017-07-08T09:42:11.913Z,6.70
2017-07-08T09:44:39.413Z,6.60
2017-07-08T09:47:06.893Z,6.77
2017-07-08T09:49:34.416Z,6.50
2017-07-08T09:52:02.687Z,6.20
2017-07-08T09:54:30.944Z,6.20
2017-07-08T09:56:58.437Z,5.83
2017-07-08T09:59:25.921Z,5.47
2017-07-08T10:01:53.406Z,7.00
2017-07-08T10:04:20.885Z,5.50
2017-07-08T10:06:48.404Z,6.20
2017-07-08T10:09:15.885Z,6.10
2017-07-08T10:11:43.399Z,6.93
2017-07-08T10:14:10.904Z,5.93
2017-07-08T10:16:38.418Z,6.30
2017-07-08T10:19:05.891Z,6.03
2017-07-08T10:21:33.377Z,5.97
2017-07-08T10:24:00.851Z,7.47
2017-07-08T10:26:28.367Z,7.10
2017-07-08T10:28:55.847Z,7.17
2017-07-08T10:31:23.327Z,6.90
2017-07-08T10:33:50.843Z,6.60
2017-07-08T10:36:28.856Z,6.77
2017-07-08T10:38:56.337Z,6.93
2017-07-08T10:41:23.816Z,6.50
2017-07-08T10:43:52.165Z,7.23
2017-07-08T10:46:19.648Z,6.80
2017-07-08T10:48:47.903Z,6.07
2017-07-08T10:51:15.393Z,6.53
2017-07-08T10:53:43.669Z,7.60
2017-07-08T10:56:11.919Z,6.40
2017-07-08T10:58:39.416Z,6.80
2017-07-08T11:01:06.918Z,7.07
2017-07-08T11:03:34.427Z,8.30
2017-07-08T11:06:01.907Z,6.93
2017-07-08T11:08:29.404Z,6.77
2017-07-08T11:10:57.687Z,6.60
2017-07-08T11:13:25.273Z,6.53
2017-07-08T11:15:53.507Z,6.40
2017-07-08T11:18:21.000Z,6.50
2017-07-08T11:20:48.856Z,6.43
2017-07-08T11:23:16.347Z,6.60
2017-07-08T11:25:43.843Z,6.80
2017-07-08T11:28:11.319Z,6.10
2017-07-08T11:30:38.813Z,6.77
2017-07-08T11:33:06.297Z,15.93
2017-07-08T11:35:33.807Z,6.20
2017-07-08T11:38:01.307Z,5.90
2017-07-08T11:40:28.819Z,6.70
2017-07-08T11:42:56.296Z,7.20
2017-07-08T11:45:24.554Z,6.53
2017-07-08T11:47:52.044Z,7.27
2017-07-08T11:50:19.550Z,6.73
2017-07-08T11:52:47.417Z,6.53
2017-07-08T11:55:14.882Z,6.60
2017-07-08T11:57:42.404Z,6.30
2017-07-08T12:00:09.876Z,6.23
2017-07-08T12:02:37.355Z,7.73
2017-07-08T12:05:04.864Z,7.43
2017-07-08T12:07:32.373Z,6.90
2017-07-08T12:09:59.852Z,7.53
2017-07-08T12:12:27.361Z,7.47
2017-07-08T12:14:54.845Z,6.90
2017-07-08T12:17:22.350Z,7.27
2017-07-08T12:19:49.837Z,6.97
2017-07-08T12:22:17.333Z,7.37
2017-07-08T12:24:44.803Z,6.53
2017-07-08T12:27:12.296Z,6.73
2017-07-08T12:29:39.790Z,6.47
2017-07-08T12:32:07.266Z,6.23
2017-07-08T12:34:34.750Z,6.10
2017-07-08T12:37:02.253Z,5.80
2017-07-08T12:39:29.735Z,7.70
2017-07-08T12:41:57.230Z,6.33
2017-07-08T12:44:24.728Z,6.67
2017-07-08T12:46:52.212Z,7.53
2017-07-08T12:49:19.719Z,7.90
2017-07-08T12:51:47.195Z,7.77
2017-07-08T12:54:14.676Z,7.00
2017-07-08T12:56:42.156Z,8.40
2017-07-08T12:59:10.435Z,7.50
2017-07-08T13:01:38.684Z,7.77
2017-07-08T13:04:06.184Z,7.60
2017-07-08T13:06:33.692Z,8.30
2017-07-08T13:09:01.166Z,7.00
2017-07-08T13:11:28.661Z,7.57
2017-07-08T13:13:56.146Z,8.20
2017-07-08T13:16:23.643Z,9.13
2017-07-08T13:18:51.129Z,8.27
2017-07-08T13:21:18.631Z,8.37
2017-07-08T13:23:46.135Z,11.33
2017-07-08T13:26:14.419Z,7.90
2017-07-08T13:28:41.895Z,7.40
2017-07-08T13:31:09.381Z,7.60
2017-07-08T13:33:36.865Z,7.50
2017-07-08T13:36:04.353Z,7.33
2017-07-08T13:38:31.868Z,8.40
2017-07-08T13:40:59.357Z,7.40
2017-07-08T13:43:27.609Z,8.60
2017-07-08T13:45:55.094Z,7.43
2017-07-08T13:48:23.344Z,7.30
2017-07-08T13:50:50.835Z,8.20
2017-07-08T13:53:18.325Z,8.03
2017-07-08T13:55:46.670Z,8.60
2017-07-08T13:58:14.506Z,8.03
2017-07-08T14:00:41.985Z,9.60
2017-07-08T14:03:10.235Z,8.23
2017-07-08T14:05:37.780Z,8.83
2017-07-08T14:08:05.265Z,9.10
2017-07-08T14:10:32.770Z,9.33
2017-07-08T14:13:00.464Z,8.70
2017-07-08T14:15:28.053Z,8.00
2017-07-08T14:17:56.306Z,7.83
2017-07-08T14:20:23.798Z,8.47
2017-07-08T14:23:11.229Z,8.60
2017-07-08T14:25:38.724Z,8.27
2017-07-08T14:28:06.215Z,8.73
2017-07-08T14:30:33.716Z,8.07
2017-07-08T14:33:01.213Z,8.40
2017-07-08T14:35:28.730Z,8.23
2017-07-08T14:37:56.196Z,8.70
2017-07-08T14:40:23.687Z,9.30
2017-07-08T14:42:51.195Z,8.40
2017-07-08T14:45:18.730Z,10.77
2017-07-08T14:47:47.005Z,8.13
2017-07-08T14:50:14.580Z,8.03
2017-07-08T14:52:42.851Z,7.60
2017-07-08T14:55:11.095Z,6.90
2017-07-08T14:57:38.598Z,7.57
2017-07-08T15:00:06.144Z,7.73
2017-07-08T15:02:34.541Z,7.40
2017-07-08T15:05:02.026Z,8.40
2017-07-08T15:07:29.500Z,7.77
2017-07-08T15:09:56.991Z,8.23
2017-07-08T15:12:25.251Z,9.37
2017-07-08T15:14:52.742Z,8.00
2017-07-08T15:17:20.228Z,8.30
2017-07-08T15:19:47.737Z,8.43
2017-07-08T15:22:16.001Z,11.10
2017-07-08T15:24:45.901Z,8.60
2017-07-08T15:27:13.377Z,8.07
2017-07-08T15:29:40.896Z,8.60
2017-07-08T15:32:08.446Z,8.43
2017-07-08T15:34:35.948Z,7.83
2017-07-08T15:37:03.434Z,8.73
2017-07-08T15:39:31.683Z,7.67
2017-07-08T15:41:59.175Z,8.07
2017-07-08T15:44:26.657Z,7.93
2017-07-08T15:46:54.153Z,8.50
2017-07-08T15:49:21.653Z,7.30
2017-07-08T15:51:49.135Z,8.23
2017-07-08T15:54:16.611Z,7.80
2017-07-08T15:56:44.100Z,6.80
2017-07-08T15:59:12.358Z,7.93
2017-07-08T16:01:39.876Z,7.30
2017-07-08T16:04:07.386Z,7.20
2017-07-08T16:06:34.859Z,7.10
2017-07-08T16:09:03.140Z,7.27
2017-07-08T16:11:31.414Z,6.33
2017-07-08T16:13:59.694Z,7.07
2017-07-08T16:16:27.946Z,7.13
2017-07-08T16:18:55.446Z,6.70
2017-07-08T16:21:22.931Z,5.90
2017-07-08T16:23:50.430Z,6.53
2017-07-08T16:26:18.688Z,6.17
2017-07-08T16:28:46.196Z,6.67
2017-07-08T16:31:13.670Z,5.63
2017-07-08T16:33:41.187Z,5.60
2017-07-08T16:36:09.423Z,5.60
2017-07-08T16:38:36.916Z,5.73
2017-07-08T16:41:05.200Z,5.30
2017-07-08T16:43:33.450Z,5.80
2017-07-08T16:46:01.748Z,4.67
2017-07-08T16:48:30.003Z,6.00
2017-07-08T16:50:57.490Z,6.43
2017-07-08T16:53:25.766Z,4.90
2017-07-08T16:55:54.018Z,5.00
2017-07-08T16:58:22.277Z,5.87
2017-07-08T17:00:49.887Z,5.13
2017-07-08T17:03:17.379Z,5.40
2017-07-08T17:05:44.868Z,5.80
2017-07-08T17:08:12.368Z,6.00
2017-07-08T17:10:39.854Z,6.60
2017-07-08T17:13:07.337Z,5.50
2017-07-08T17:15:34.818Z,5.53
2017-07-08T17:18:03.084Z,6.17
2017-07-08T17:20:30.577Z,6.17
2017-07-08T17:22:58.124Z,5.57
2017-07-08T17:25:25.607Z,6.03
2017-07-08T17:27:53.097Z,6.13
2017-07-08T17:30:20.608Z,5.37
2017-07-08T17:32:48.091Z,5.10
2017-07-08T17:35:16.035Z,5.70
2017-07-08T17:37:43.506Z,5.00
2017-07-08T17:40:10.994Z,6.47
2017-07-08T17:42:38.480Z,5.60
2017-07-08T17:45:06.603Z,6.03
2017-07-08T17:47:34.108Z,5.60
2017-07-08T17:50:01.614Z,6.20
2017-07-08T17:52:29.168Z,5.07
2017-07-08T17:54:56.674Z,4.70
2017-07-08T17:57:24.156Z,5.60
2017-07-08T17:59:52.412Z,6.30
2017-07-08T18:02:20.118Z,5.33
2017-07-08T18:04:47.609Z,5.67
2017-07-08T18:07:15.105Z,5.90
2017-07-08T18:09:43.343Z,5.20
2017-07-08T18:12:10.830Z,5.50
2017-07-08T18:14:38.319Z,5.80
2017-07-08T18:17:05.824Z,6.20
2017-07-08T18:19:33.307Z,5.37
2017-07-08T18:22:01.578Z,5.70
2017-07-08T18:24:29.050Z,5.60
2017-07-08T18:26:57.339Z,5.60
2017-07-08T18:29:24.836Z,7.37
2017-07-08T18:31:52.315Z,7.40
2017-07-08T18:34:19.812Z,9.13
2017-07-08T18:36:47.287Z,8.70
2017-07-08T18:39:14.775Z,8.63
2017-07-08T18:41:42.281Z,10.73
2017-07-08T18:44:10.545Z,9.77
2017-07-08T18:46:38.817Z,8.50
2017-07-08T18:49:07.111Z,9.40
2017-07-08T18:51:34.595Z,9.83
2017-07-08T18:54:02.114Z,10.37
2017-07-08T18:56:30.394Z,9.47
2017-07-08T18:58:58.669Z,9.00
2017-07-08T19:01:26.917Z,9.50
2017-07-08T19:03:54.402Z,9.07
2017-07-08T19:06:22.678Z,9.90
2017-07-08T19:08:50.925Z,9.43
2017-07-08T19:11:18.425Z,10.23
2017-07-08T19:13:45.913Z,10.30
2017-07-08T19:16:13.410Z,10.20
2017-07-08T19:18:40.903Z,10.30
2017-07-08T19:21:08.415Z,9.80
2017-07-08T19:23:35.882Z,9.27
2017-07-08T19:26:03.364Z,8.93
2017-07-08T19:28:31.763Z,8.90
2017-07-08T19:30:59.282Z,9.07
2017-07-08T19:33:26.773Z,8.77
2017-07-08T19:35:54.254Z,8.77
2017-07-08T19:38:21.752Z,8.90
2017-07-08T19:40:49.242Z,11.90
2017-07-08T19:43:16.737Z,8.70
2017-07-08T19:45:44.215Z,7.93
2017-07-08T19:48:11.701Z,8.47
2017-07-08T19:50:39.950Z,8.77
2017-07-08T19:53:08.161Z,8.83
2017-07-08T19:55:36.396Z,8.57
2017-07-08T19:58:03.905Z,8.43
2017-07-08T20:00:31.443Z,8.97
2017-07-08T20:02:59.727Z,9.30
2017-07-08T20:05:27.991Z,8.80
2017-07-08T20:07:57.034Z,8.23
2017-07-08T20:10:24.533Z,8.10
2017-07-08T20:12:52.033Z,8.20
2017-07-08T20:15:19.549Z,8.77
2017-07-08T20:17:47.030Z,9.53
2017-07-08T20:20:15.292Z,8.70
2017-07-08T20:22:43.534Z,9.27
2017-07-08T20:25:11.034Z,8.50
2017-07-08T20:27:39.290Z,8.37
2017-07-08T20:30:06.835Z,9.07
2017-07-08T20:32:34.422Z,8.00
2017-07-08T20:35:02.712Z,7.90
2017-07-08T20:37:30.203Z,9.17
2017-07-08T20:39:57.679Z,8.80
2017-07-08T20:42:25.177Z,6.87
2017-07-08T20:44:53.426Z,7.10
2017-07-08T20:47:20.922Z,7.60
2017-07-08T20:49:49.175Z,6.90
2017-07-08T20:52:16.685Z,7.70
2017-07-08T20:54:44.162Z,7.00
2017-07-08T20:57:11.670Z,6.93
2017-07-08T20:59:39.907Z,6.17
2017-07-08T21:02:07.384Z,6.90
2017-07-08T21:04:34.866Z,7.30
2017-07-08T21:07:02.343Z,7.10
2017-07-08T21:09:29.848Z,7.33
2017-07-08T21:11:57.443Z,6.77
2017-07-08T21:14:24.924Z,6.93
2017-07-08T21:16:52.424Z,6.97
2017-07-08T21:19:19.917Z,6.70
2017-07-08T21:21:47.387Z,7.03
2017-07-08T21:24:14.884Z,6.70
2017-07-08T21:26:42.362Z,6.83
2017-07-08T21:29:09.886Z,6.03
2017-07-08T21:31:37.368Z,6.50
2017-07-08T21:34:04.844Z,6.97
2017-07-08T21:36:33.101Z,6.37
2017-07-08T21:39:00.607Z,6.83
2017-07-08T21:41:28.078Z,7.20
2017-07-08T21:43:55.561Z,5.90
2017-07-08T21:46:23.043Z,6.03
2017-07-08T21:48:54.170Z,6.17
2017-07-08T21:51:21.665Z,6.10
2017-07-08T21:53:49.914Z,6.83
2017-07-08T21:56:17.434Z,6.07
2017-07-08T21:58:44.921Z,5.53
2017-07-08T22:01:12.403Z,5.37
2017-07-08T22:03:40.658Z,5.50
2017-07-08T22:06:08.143Z,5.00
2017-07-08T22:08:36.405Z,5.77
2017-07-08T22:11:03.884Z,5.53
2017-07-08T22:13:32.143Z,6.20
2017-07-08T22:15:59.621Z,5.10
2017-07-08T22:18:27.110Z,4.80
2017-07-08T22:20:54.583Z,5.80
2017-07-08T22:23:22.579Z,5.33
2017-07-08T22:25:50.096Z,5.67
2017-07-08T22:28:17.610Z,7.07
2017-07-08T22:30:45.910Z,6.53
2017-07-08T22:33:13.433Z,5.10
2017-07-08T22:35:40.960Z,5.37
2017-07-08T22:38:08.475Z,5.10
2017-07-08T22:40:36.764Z,5.20
2017-07-08T22:43:04.289Z,5.17
2017-07-08T22:45:32.616Z,4.97
2017-07-08T22:48:00.134Z,5.00
2017-07-08T22:50:28.449Z,5.50
2017-07-08T22:52:55.969Z,5.80
2017-07-08T22:55:24.257Z,5.60
2017-07-08T22:57:51.850Z,5.60
2017-07-08T23:00:19.377Z,5.60
2017-07-08T23:02:47.688Z,5.30
2017-07-08T23:05:15.553Z,5.40
2017-07-08T23:07:43.083Z,5.20
2017-07-08T23:10:11.384Z,5.60
2017-07-08T23:12:38.915Z,5.20
2017-07-08T23:15:06.449Z,4.97
2017-07-08T23:17:34.003Z,5.63
2017-07-08T23:20:01.537Z,5.80
2017-07-08T23:22:29.052Z,6.03
2017-07-08T23:24:57.349Z,5.40
2017-07-08T23:27:24.888Z,5.50
2017-07-08T23:29:52.419Z,4.77
2017-07-08T23:32:19.959Z,5.10
2017-07-08T23:34:47.484Z,4.80
2017-07-08T23:37:15.008Z,5.63
2017-07-08T23:39:43.333Z,4.90
2017-07-08T23:42:10.844Z,5.00
2017-07-08T23:44:39.173Z,6.40
2017-07-08T23:47:06.697Z,5.47
2017-07-08T23:49:34.217Z,5.50
2017-07-08T23:52:01.751Z,5.73
2017-07-08T23:54:29.265Z,4.73
2017-07-08T23:56:57.560Z,5.00
2017-07-08T23:59:25.077Z,5.53
